sensor_id;sensor_type;location;lat;lon;timestamp;P1;durP1;ratioP1;P2;durP2;ratioP2
84411;SDS011;74609;44.028;20.950;2024-01-11T00:00:39;46.20;;;25.63;;
84411;SDS011;74609;44.028;20.950;2024-01-11T00:03:05;47.15;;;26.92;;
84411;SDS011;74609;44.028;20.950;2024-01-11T00:05:31;46.83;;;25.42;;
84411;SDS011;74609;44.028;20.950;2024-01-11T00:07:57;39.03;;;24.35;;
84411;SDS011;74609;44.028;20.950;2024-01-11T00:10:23;42.90;;;24.83;;
84411;SDS011;74609;44.028;20.950;2024-01-11T00:12:49;41.85;;;24.35;;
84411;SDS011;74609;44.028;20.950;2024-01-11T00:15:15;45.08;;;23.13;;
84411;SDS011;74609;44.028;20.950;2024-01-11T00:17:41;41.50;;;22.98;;
84411;SDS011;74609;44.028;20.950;2024-01-11T00:20:07;41.08;;;23.23;;
84411;SDS011;74609;44.028;20.950;2024-01-11T00:22:34;36.03;;;22.33;;
84411;SDS011;74609;44.028;20.950;2024-01-11T00:25:00;35.97;;;21.65;;
84411;SDS011;74609;44.028;20.950;2024-01-11T00:27:26;34.53;;;19.25;;
84411;SDS011;74609;44.028;20.950;2024-01-11T00:29:53;35.38;;;20.70;;
84411;SDS011;74609;44.028;20.950;2024-01-11T00:32:19;37.53;;;21.42;;
84411;SDS011;74609;44.028;20.950;2024-01-11T00:34:46;34.28;;;20.02;;
84411;SDS011;74609;44.028;20.950;2024-01-11T00:37:12;37.53;;;20.95;;
84411;SDS011;74609;44.028;20.950;2024-01-11T00:39:38;35.50;;;20.27;;
84411;SDS011;74609;44.028;20.950;2024-01-11T00:42:04;28.48;;;17.95;;
84411;SDS011;74609;44.028;20.950;2024-01-11T00:44:31;36.15;;;19.92;;
84411;SDS011;74609;44.028;20.950;2024-01-11T00:46:57;34.83;;;19.80;;
84411;SDS011;74609;44.028;20.950;2024-01-11T00:49:24;31.55;;;18.17;;
84411;SDS011;74609;44.028;20.950;2024-01-11T00:51:50;33.45;;;18.85;;
84411;SDS011;74609;44.028;20.950;2024-01-11T00:54:16;31.83;;;18.70;;
84411;SDS011;74609;44.028;20.950;2024-01-11T00:56:42;32.95;;;18.80;;
84411;SDS011;74609;44.028;20.950;2024-01-11T00:59:08;30.02;;;17.85;;
84411;SDS011;74609;44.028;20.950;2024-01-11T01:01:34;28.60;;;16.95;;
84411;SDS011;74609;44.028;20.950;2024-01-11T01:04:00;27.30;;;16.65;;
84411;SDS011;74609;44.028;20.950;2024-01-11T01:06:26;28.98;;;16.67;;
84411;SDS011;74609;44.028;20.950;2024-01-11T01:08:53;33.03;;;18.13;;
84411;SDS011;74609;44.028;20.950;2024-01-11T01:11:19;29.67;;;18.55;;
84411;SDS011;74609;44.028;20.950;2024-01-11T01:13:45;36.88;;;21.40;;
84411;SDS011;74609;44.028;20.950;2024-01-11T01:16:11;36.65;;;21.15;;
84411;SDS011;74609;44.028;20.950;2024-01-11T01:18:38;39.03;;;21.50;;
84411;SDS011;74609;44.028;20.950;2024-01-11T01:21:04;35.80;;;21.08;;
84411;SDS011;74609;44.028;20.950;2024-01-11T01:23:32;40.83;;;21.75;;
84411;SDS011;74609;44.028;20.950;2024-01-11T01:25:58;39.47;;;23.15;;
84411;SDS011;74609;44.028;20.950;2024-01-11T01:28:24;38.22;;;22.08;;
84411;SDS011;74609;44.028;20.950;2024-01-11T01:30:50;36.85;;;21.75;;
84411;SDS011;74609;44.028;20.950;2024-01-11T01:33:16;41.95;;;23.83;;
84411;SDS011;74609;44.028;20.950;2024-01-11T01:35:42;39.38;;;23.45;;
84411;SDS011;74609;44.028;20.950;2024-01-11T01:38:08;43.22;;;24.55;;
84411;SDS011;74609;44.028;20.950;2024-01-11T01:40:34;34.85;;;20.35;;
84411;SDS011;74609;44.028;20.950;2024-01-11T01:43:00;38.85;;;21.20;;
84411;SDS011;74609;44.028;20.950;2024-01-11T01:45:26;40.38;;;22.67;;
84411;SDS011;74609;44.028;20.950;2024-01-11T01:47:52;37.53;;;22.10;;
84411;SDS011;74609;44.028;20.950;2024-01-11T01:50:20;35.13;;;21.02;;
84411;SDS011;74609;44.028;20.950;2024-01-11T01:52:46;34.67;;;19.48;;
84411;SDS011;74609;44.028;20.950;2024-01-11T01:55:13;32.17;;;18.42;;
84411;SDS011;74609;44.028;20.950;2024-01-11T01:57:41;29.10;;;17.48;;
84411;SDS011;74609;44.028;20.950;2024-01-11T02:00:10;28.40;;;16.92;;
84411;SDS011;74609;44.028;20.950;2024-01-11T02:02:38;32.17;;;18.52;;
84411;SDS011;74609;44.028;20.950;2024-01-11T02:05:04;28.63;;;16.27;;
84411;SDS011;74609;44.028;20.950;2024-01-11T02:07:30;28.30;;;16.85;;
84411;SDS011;74609;44.028;20.950;2024-01-11T02:09:56;28.48;;;16.52;;
84411;SDS011;74609;44.028;20.950;2024-01-11T02:12:23;27.17;;;16.40;;
84411;SDS011;74609;44.028;20.950;2024-01-11T02:14:50;29.05;;;17.17;;
84411;SDS011;74609;44.028;20.950;2024-01-11T02:17:16;31.00;;;17.98;;
84411;SDS011;74609;44.028;20.950;2024-01-11T02:19:42;29.13;;;17.02;;
84411;SDS011;74609;44.028;20.950;2024-01-11T02:22:10;27.63;;;15.88;;
84411;SDS011;74609;44.028;20.950;2024-01-11T02:24:38;24.17;;;14.35;;
84411;SDS011;74609;44.028;20.950;2024-01-11T02:27:05;24.10;;;14.05;;
84411;SDS011;74609;44.028;20.950;2024-01-11T02:29:31;24.60;;;14.50;;
84411;SDS011;74609;44.028;20.950;2024-01-11T02:31:58;24.95;;;14.13;;
84411;SDS011;74609;44.028;20.950;2024-01-11T02:34:24;25.20;;;13.73;;
84411;SDS011;74609;44.028;20.950;2024-01-11T02:36:52;25.25;;;13.90;;
84411;SDS011;74609;44.028;20.950;2024-01-11T02:39:19;20.30;;;12.65;;
84411;SDS011;74609;44.028;20.950;2024-01-11T02:41:45;22.15;;;13.48;;
84411;SDS011;74609;44.028;20.950;2024-01-11T02:44:12;20.13;;;12.15;;
84411;SDS011;74609;44.028;20.950;2024-01-11T02:46:38;20.00;;;12.27;;
84411;SDS011;74609;44.028;20.950;2024-01-11T02:49:04;21.67;;;12.20;;
84411;SDS011;74609;44.028;20.950;2024-01-11T02:51:30;21.02;;;12.30;;
84411;SDS011;74609;44.028;20.950;2024-01-11T02:53:56;20.00;;;12.00;;
84411;SDS011;74609;44.028;20.950;2024-01-11T02:56:22;20.52;;;11.65;;
84411;SDS011;74609;44.028;20.950;2024-01-11T02:58:49;24.00;;;12.45;;
84411;SDS011;74609;44.028;20.950;2024-01-11T03:01:15;18.75;;;11.63;;
84411;SDS011;74609;44.028;20.950;2024-01-11T03:03:41;18.75;;;11.35;;
84411;SDS011;74609;44.028;20.950;2024-01-11T03:06:07;18.38;;;11.48;;
84411;SDS011;74609;44.028;20.950;2024-01-11T03:08:33;20.27;;;11.85;;
84411;SDS011;74609;44.028;20.950;2024-01-11T03:10:59;21.83;;;12.98;;
84411;SDS011;74609;44.028;20.950;2024-01-11T03:13:25;25.50;;;15.10;;
84411;SDS011;74609;44.028;20.950;2024-01-11T03:15:51;24.73;;;14.65;;
84411;SDS011;74609;44.028;20.950;2024-01-11T03:18:17;27.02;;;15.23;;
84411;SDS011;74609;44.028;20.950;2024-01-11T03:20:43;27.13;;;14.90;;
84411;SDS011;74609;44.028;20.950;2024-01-11T03:23:10;23.98;;;14.63;;
84411;SDS011;74609;44.028;20.950;2024-01-11T03:25:36;24.45;;;14.02;;
84411;SDS011;74609;44.028;20.950;2024-01-11T03:28:02;19.55;;;12.13;;
84411;SDS011;74609;44.028;20.950;2024-01-11T03:30:28;23.95;;;13.48;;
84411;SDS011;74609;44.028;20.950;2024-01-11T03:32:54;22.70;;;12.10;;
84411;SDS011;74609;44.028;20.950;2024-01-11T03:35:20;22.67;;;12.35;;
84411;SDS011;74609;44.028;20.950;2024-01-11T03:37:46;17.67;;;11.55;;
84411;SDS011;74609;44.028;20.950;2024-01-11T03:40:12;18.40;;;11.25;;
84411;SDS011;74609;44.028;20.950;2024-01-11T03:42:39;16.52;;;10.88;;
84411;SDS011;74609;44.028;20.950;2024-01-11T03:45:05;21.00;;;10.90;;
84411;SDS011;74609;44.028;20.950;2024-01-11T03:47:32;17.33;;;10.05;;
84411;SDS011;74609;44.028;20.950;2024-01-11T03:49:58;16.75;;;10.30;;
84411;SDS011;74609;44.028;20.950;2024-01-11T03:52:27;17.08;;;9.93;;
84411;SDS011;74609;44.028;20.950;2024-01-11T03:54:53;16.60;;;10.07;;
84411;SDS011;74609;44.028;20.950;2024-01-11T03:57:19;15.25;;;10.48;;
84411;SDS011;74609;44.028;20.950;2024-01-11T03:59:45;17.23;;;9.68;;
84411;SDS011;74609;44.028;20.950;2024-01-11T04:02:11;18.88;;;10.38;;
84411;SDS011;74609;44.028;20.950;2024-01-11T04:04:37;16.38;;;10.70;;
84411;SDS011;74609;44.028;20.950;2024-01-11T04:07:03;16.92;;;10.85;;
84411;SDS011;74609;44.028;20.950;2024-01-11T04:09:29;20.08;;;11.68;;
84411;SDS011;74609;44.028;20.950;2024-01-11T04:11:55;21.75;;;12.50;;
84411;SDS011;74609;44.028;20.950;2024-01-11T04:14:21;22.83;;;13.85;;
84411;SDS011;74609;44.028;20.950;2024-01-11T04:16:47;28.73;;;15.57;;
84411;SDS011;74609;44.028;20.950;2024-01-11T04:19:13;23.45;;;14.77;;
84411;SDS011;74609;44.028;20.950;2024-01-11T04:21:39;23.15;;;12.85;;
84411;SDS011;74609;44.028;20.950;2024-01-11T04:24:06;20.33;;;13.50;;
84411;SDS011;74609;44.028;20.950;2024-01-11T04:26:32;21.80;;;13.15;;
84411;SDS011;74609;44.028;20.950;2024-01-11T04:28:58;23.20;;;14.55;;
84411;SDS011;74609;44.028;20.950;2024-01-11T04:31:25;24.15;;;13.45;;
84411;SDS011;74609;44.028;20.950;2024-01-11T04:33:54;23.65;;;13.57;;
84411;SDS011;74609;44.028;20.950;2024-01-11T04:36:20;23.63;;;13.45;;
84411;SDS011;74609;44.028;20.950;2024-01-11T04:38:46;23.40;;;14.10;;
84411;SDS011;74609;44.028;20.950;2024-01-11T04:41:13;23.85;;;13.98;;
84411;SDS011;74609;44.028;20.950;2024-01-11T04:43:39;25.05;;;15.45;;
84411;SDS011;74609;44.028;20.950;2024-01-11T04:46:15;22.02;;;13.18;;
84411;SDS011;74609;44.028;20.950;2024-01-11T04:48:42;27.98;;;15.65;;
84411;SDS011;74609;44.028;20.950;2024-01-11T04:51:08;26.98;;;15.75;;
84411;SDS011;74609;44.028;20.950;2024-01-11T04:53:38;27.63;;;16.00;;
84411;SDS011;74609;44.028;20.950;2024-01-11T04:56:04;30.42;;;15.80;;
84411;SDS011;74609;44.028;20.950;2024-01-11T04:58:30;25.77;;;13.82;;
84411;SDS011;74609;44.028;20.950;2024-01-11T05:00:56;25.67;;;14.05;;
84411;SDS011;74609;44.028;20.950;2024-01-11T05:03:22;23.95;;;13.23;;
84411;SDS011;74609;44.028;20.950;2024-01-11T05:05:48;25.42;;;11.73;;
84411;SDS011;74609;44.028;20.950;2024-01-11T05:08:14;25.17;;;12.00;;
84411;SDS011;74609;44.028;20.950;2024-01-11T05:10:40;25.98;;;12.07;;
84411;SDS011;74609;44.028;20.950;2024-01-11T05:13:07;25.85;;;12.35;;
84411;SDS011;74609;44.028;20.950;2024-01-11T05:15:34;20.70;;;11.35;;
84411;SDS011;74609;44.028;20.950;2024-01-11T05:18:00;22.85;;;12.05;;
84411;SDS011;74609;44.028;20.950;2024-01-11T05:20:26;22.33;;;12.07;;
84411;SDS011;74609;44.028;20.950;2024-01-11T05:22:52;22.83;;;12.07;;
84411;SDS011;74609;44.028;20.950;2024-01-11T05:25:19;21.90;;;11.65;;
84411;SDS011;74609;44.028;20.950;2024-01-11T05:27:45;21.80;;;11.18;;
84411;SDS011;74609;44.028;20.950;2024-01-11T05:30:11;20.42;;;11.20;;
84411;SDS011;74609;44.028;20.950;2024-01-11T05:32:37;21.90;;;11.88;;
84411;SDS011;74609;44.028;20.950;2024-01-11T05:35:04;26.83;;;13.02;;
84411;SDS011;74609;44.028;20.950;2024-01-11T05:37:30;28.88;;;12.98;;
84411;SDS011;74609;44.028;20.950;2024-01-11T05:39:56;29.20;;;13.82;;
84411;SDS011;74609;44.028;20.950;2024-01-11T05:42:22;28.00;;;15.45;;
84411;SDS011;74609;44.028;20.950;2024-01-11T05:44:49;25.95;;;13.50;;
84411;SDS011;74609;44.028;20.950;2024-01-11T05:47:15;26.33;;;12.23;;
84411;SDS011;74609;44.028;20.950;2024-01-11T05:49:41;22.17;;;12.45;;
84411;SDS011;74609;44.028;20.950;2024-01-11T05:52:07;26.27;;;13.15;;
84411;SDS011;74609;44.028;20.950;2024-01-11T05:54:33;25.25;;;12.88;;
84411;SDS011;74609;44.028;20.950;2024-01-11T05:56:59;22.30;;;12.82;;
84411;SDS011;74609;44.028;20.950;2024-01-11T05:59:25;23.60;;;12.65;;
84411;SDS011;74609;44.028;20.950;2024-01-11T06:01:51;25.85;;;12.57;;
84411;SDS011;74609;44.028;20.950;2024-01-11T06:04:17;22.52;;;11.98;;
84411;SDS011;74609;44.028;20.950;2024-01-11T06:06:43;19.75;;;10.10;;
84411;SDS011;74609;44.028;20.950;2024-01-11T06:09:10;20.02;;;11.38;;
84411;SDS011;74609;44.028;20.950;2024-01-11T06:11:36;22.30;;;12.02;;
84411;SDS011;74609;44.028;20.950;2024-01-11T06:14:02;22.00;;;12.40;;
84411;SDS011;74609;44.028;20.950;2024-01-11T06:16:28;31.67;;;12.88;;
84411;SDS011;74609;44.028;20.950;2024-01-11T06:18:54;25.48;;;12.43;;
84411;SDS011;74609;44.028;20.950;2024-01-11T06:21:20;25.88;;;13.32;;
84411;SDS011;74609;44.028;20.950;2024-01-11T06:23:46;21.67;;;12.30;;
84411;SDS011;74609;44.028;20.950;2024-01-11T06:26:14;27.02;;;12.98;;
84411;SDS011;74609;44.028;20.950;2024-01-11T06:28:40;22.77;;;11.68;;
84411;SDS011;74609;44.028;20.950;2024-01-11T06:31:06;24.08;;;13.13;;
84411;SDS011;74609;44.028;20.950;2024-01-11T06:33:32;25.85;;;12.30;;
84411;SDS011;74609;44.028;20.950;2024-01-11T06:36:02;30.17;;;14.70;;
84411;SDS011;74609;44.028;20.950;2024-01-11T06:38:28;23.85;;;13.35;;
84411;SDS011;74609;44.028;20.950;2024-01-11T06:40:54;28.95;;;15.18;;
84411;SDS011;74609;44.028;20.950;2024-01-11T06:43:20;27.17;;;13.60;;
84411;SDS011;74609;44.028;20.950;2024-01-11T06:45:46;21.83;;;11.73;;
84411;SDS011;74609;44.028;20.950;2024-01-11T06:48:12;27.50;;;12.13;;
84411;SDS011;74609;44.028;20.950;2024-01-11T06:50:38;23.52;;;10.65;;
84411;SDS011;74609;44.028;20.950;2024-01-11T06:53:04;22.23;;;10.98;;
84411;SDS011;74609;44.028;20.950;2024-01-11T06:55:34;41.15;;;24.27;;
84411;SDS011;74609;44.028;20.950;2024-01-11T06:58:01;20.30;;;11.20;;
84411;SDS011;74609;44.028;20.950;2024-01-11T07:00:27;26.40;;;11.27;;
84411;SDS011;74609;44.028;20.950;2024-01-11T07:02:53;25.48;;;11.95;;
84411;SDS011;74609;44.028;20.950;2024-01-11T07:05:19;24.40;;;10.73;;
84411;SDS011;74609;44.028;20.950;2024-01-11T07:07:46;28.08;;;11.98;;
84411;SDS011;74609;44.028;20.950;2024-01-11T07:10:12;26.10;;;12.80;;
84411;SDS011;74609;44.028;20.950;2024-01-11T07:12:38;23.38;;;14.35;;
84411;SDS011;74609;44.028;20.950;2024-01-11T07:15:06;19.33;;;10.55;;
84411;SDS011;74609;44.028;20.950;2024-01-11T07:17:33;23.15;;;13.27;;
84411;SDS011;74609;44.028;20.950;2024-01-11T07:19:59;30.38;;;15.30;;
84411;SDS011;74609;44.028;20.950;2024-01-11T07:22:25;32.13;;;15.38;;
84411;SDS011;74609;44.028;20.950;2024-01-11T07:24:51;30.55;;;17.10;;
84411;SDS011;74609;44.028;20.950;2024-01-11T07:27:17;27.73;;;15.38;;
84411;SDS011;74609;44.028;20.950;2024-01-11T07:29:44;24.88;;;14.38;;
84411;SDS011;74609;44.028;20.950;2024-01-11T07:32:10;28.95;;;13.05;;
84411;SDS011;74609;44.028;20.950;2024-01-11T07:34:36;30.50;;;15.20;;
84411;SDS011;74609;44.028;20.950;2024-01-11T07:37:02;26.20;;;15.23;;
84411;SDS011;74609;44.028;20.950;2024-01-11T07:39:29;29.77;;;16.75;;
84411;SDS011;74609;44.028;20.950;2024-01-11T07:41:56;32.03;;;17.75;;
84411;SDS011;74609;44.028;20.950;2024-01-11T07:44:22;32.78;;;17.83;;
84411;SDS011;74609;44.028;20.950;2024-01-11T07:46:48;29.40;;;16.13;;
84411;SDS011;74609;44.028;20.950;2024-01-11T07:49:14;28.25;;;16.45;;
84411;SDS011;74609;44.028;20.950;2024-01-11T07:51:40;28.85;;;15.77;;
84411;SDS011;74609;44.028;20.950;2024-01-11T07:54:06;30.38;;;15.63;;
84411;SDS011;74609;44.028;20.950;2024-01-11T07:56:32;25.85;;;14.20;;
84411;SDS011;74609;44.028;20.950;2024-01-11T07:58:59;25.38;;;13.70;;
84411;SDS011;74609;44.028;20.950;2024-01-11T08:01:25;26.08;;;13.88;;
84411;SDS011;74609;44.028;20.950;2024-01-11T08:03:51;24.85;;;15.27;;
84411;SDS011;74609;44.028;20.950;2024-01-11T08:06:17;23.05;;;14.32;;
84411;SDS011;74609;44.028;20.950;2024-01-11T08:08:43;24.95;;;15.10;;
84411;SDS011;74609;44.028;20.950;2024-01-11T08:11:09;25.90;;;15.88;;
84411;SDS011;74609;44.028;20.950;2024-01-11T08:13:37;27.08;;;16.40;;
84411;SDS011;74609;44.028;20.950;2024-01-11T08:16:03;26.10;;;17.17;;
84411;SDS011;74609;44.028;20.950;2024-01-11T08:18:33;29.65;;;17.85;;
84411;SDS011;74609;44.028;20.950;2024-01-11T08:20:59;26.70;;;17.92;;
84411;SDS011;74609;44.028;20.950;2024-01-11T08:23:25;27.55;;;15.93;;
84411;SDS011;74609;44.028;20.950;2024-01-11T08:25:51;30.58;;;18.33;;
84411;SDS011;74609;44.028;20.950;2024-01-11T08:28:20;26.10;;;18.08;;
84411;SDS011;74609;44.028;20.950;2024-01-11T08:30:47;26.52;;;16.58;;
84411;SDS011;74609;44.028;20.950;2024-01-11T08:33:13;29.00;;;17.83;;
84411;SDS011;74609;44.028;20.950;2024-01-11T08:35:39;30.40;;;19.25;;
84411;SDS011;74609;44.028;20.950;2024-01-11T08:38:06;27.17;;;17.60;;
84411;SDS011;74609;44.028;20.950;2024-01-11T08:40:32;23.02;;;14.75;;
84411;SDS011;74609;44.028;20.950;2024-01-11T08:42:59;28.33;;;15.98;;
84411;SDS011;74609;44.028;20.950;2024-01-11T08:45:25;31.90;;;20.30;;
84411;SDS011;74609;44.028;20.950;2024-01-11T08:47:51;28.38;;;19.80;;
84411;SDS011;74609;44.028;20.950;2024-01-11T08:50:17;32.45;;;21.80;;
84411;SDS011;74609;44.028;20.950;2024-01-11T08:52:43;54.03;;;31.15;;
84411;SDS011;74609;44.028;20.950;2024-01-11T08:55:09;38.60;;;24.63;;
84411;SDS011;74609;44.028;20.950;2024-01-11T08:57:40;29.88;;;20.85;;
84411;SDS011;74609;44.028;20.950;2024-01-11T09:00:06;35.55;;;22.42;;
84411;SDS011;74609;44.028;20.950;2024-01-11T09:02:33;28.77;;;18.73;;
84411;SDS011;74609;44.028;20.950;2024-01-11T09:05:00;24.38;;;15.93;;
84411;SDS011;74609;44.028;20.950;2024-01-11T09:07:27;27.27;;;16.13;;
84411;SDS011;74609;44.028;20.950;2024-01-11T09:09:53;22.75;;;15.38;;
84411;SDS011;74609;44.028;20.950;2024-01-11T09:12:19;29.33;;;16.13;;
84411;SDS011;74609;44.028;20.950;2024-01-11T09:14:46;28.73;;;18.20;;
84411;SDS011;74609;44.028;20.950;2024-01-11T09:17:13;28.20;;;17.45;;
84411;SDS011;74609;44.028;20.950;2024-01-11T09:19:39;29.65;;;19.13;;
84411;SDS011;74609;44.028;20.950;2024-01-11T09:22:05;25.02;;;15.82;;
84411;SDS011;74609;44.028;20.950;2024-01-11T09:24:35;31.02;;;17.20;;
84411;SDS011;74609;44.028;20.950;2024-01-11T09:27:01;26.52;;;16.42;;
84411;SDS011;74609;44.028;20.950;2024-01-11T09:29:29;26.27;;;15.77;;
84411;SDS011;74609;44.028;20.950;2024-01-11T09:31:55;27.40;;;16.35;;
84411;SDS011;74609;44.028;20.950;2024-01-11T09:34:22;24.52;;;15.70;;
84411;SDS011;74609;44.028;20.950;2024-01-11T09:36:48;27.27;;;17.17;;
84411;SDS011;74609;44.028;20.950;2024-01-11T09:39:14;29.15;;;17.27;;
84411;SDS011;74609;44.028;20.950;2024-01-11T09:41:41;26.15;;;17.05;;
84411;SDS011;74609;44.028;20.950;2024-01-11T09:44:09;29.67;;;17.52;;
84411;SDS011;74609;44.028;20.950;2024-01-11T09:46:35;24.52;;;16.63;;
84411;SDS011;74609;44.028;20.950;2024-01-11T09:49:02;29.77;;;19.50;;
84411;SDS011;74609;44.028;20.950;2024-01-11T09:51:29;27.60;;;16.92;;
84411;SDS011;74609;44.028;20.950;2024-01-11T09:53:55;29.73;;;20.27;;
84411;SDS011;74609;44.028;20.950;2024-01-11T09:56:22;28.10;;;19.63;;
84411;SDS011;74609;44.028;20.950;2024-01-11T09:58:49;29.65;;;20.17;;
84411;SDS011;74609;44.028;20.950;2024-01-11T10:01:15;25.30;;;17.90;;
84411;SDS011;74609;44.028;20.950;2024-01-11T10:03:44;30.10;;;18.73;;
84411;SDS011;74609;44.028;20.950;2024-01-11T10:06:13;32.92;;;21.48;;
84411;SDS011;74609;44.028;20.950;2024-01-11T10:08:41;30.15;;;18.40;;
84411;SDS011;74609;44.028;20.950;2024-01-11T10:11:07;30.58;;;17.40;;
84411;SDS011;74609;44.028;20.950;2024-01-11T10:13:33;27.83;;;18.58;;
84411;SDS011;74609;44.028;20.950;2024-01-11T10:16:10;30.15;;;18.35;;
84411;SDS011;74609;44.028;20.950;2024-01-11T10:18:40;29.77;;;16.77;;
84411;SDS011;74609;44.028;20.950;2024-01-11T10:21:06;28.38;;;17.85;;
84411;SDS011;74609;44.028;20.950;2024-01-11T10:23:34;30.90;;;17.50;;
84411;SDS011;74609;44.028;20.950;2024-01-11T10:26:01;28.13;;;16.90;;
84411;SDS011;74609;44.028;20.950;2024-01-11T10:28:27;25.52;;;17.00;;
84411;SDS011;74609;44.028;20.950;2024-01-11T10:30:54;25.42;;;16.58;;
84411;SDS011;74609;44.028;20.950;2024-01-11T10:33:23;24.17;;;15.57;;
84411;SDS011;74609;44.028;20.950;2024-01-11T10:35:49;26.42;;;17.17;;
84411;SDS011;74609;44.028;20.950;2024-01-11T10:38:15;28.80;;;17.85;;
84411;SDS011;74609;44.028;20.950;2024-01-11T10:40:42;25.67;;;17.13;;
84411;SDS011;74609;44.028;20.950;2024-01-11T10:43:08;26.42;;;17.90;;
84411;SDS011;74609;44.028;20.950;2024-01-11T10:45:38;28.90;;;16.33;;
84411;SDS011;74609;44.028;20.950;2024-01-11T10:48:12;31.00;;;20.25;;
84411;SDS011;74609;44.028;20.950;2024-01-11T10:50:41;29.27;;;18.17;;
84411;SDS011;74609;44.028;20.950;2024-01-11T10:53:12;28.50;;;18.73;;
84411;SDS011;74609;44.028;20.950;2024-01-11T10:55:38;32.10;;;19.02;;
84411;SDS011;74609;44.028;20.950;2024-01-11T10:58:05;28.40;;;17.45;;
84411;SDS011;74609;44.028;20.950;2024-01-11T11:00:32;27.30;;;17.00;;
84411;SDS011;74609;44.028;20.950;2024-01-11T11:03:00;26.73;;;16.55;;
84411;SDS011;74609;44.028;20.950;2024-01-11T11:05:27;31.20;;;17.55;;
84411;SDS011;74609;44.028;20.950;2024-01-11T11:08:00;29.70;;;16.85;;
84411;SDS011;74609;44.028;20.950;2024-01-11T11:10:27;31.45;;;17.08;;
84411;SDS011;74609;44.028;20.950;2024-01-11T11:12:54;31.88;;;18.45;;
84411;SDS011;74609;44.028;20.950;2024-01-11T11:15:24;28.40;;;18.70;;
84411;SDS011;74609;44.028;20.950;2024-01-11T11:17:52;29.50;;;18.25;;
84411;SDS011;74609;44.028;20.950;2024-01-11T11:20:19;31.95;;;19.20;;
84411;SDS011;74609;44.028;20.950;2024-01-11T11:25:30;30.63;;;17.92;;
84411;SDS011;74609;44.028;20.950;2024-01-11T11:27:57;33.90;;;22.70;;
84411;SDS011;74609;44.028;20.950;2024-01-11T11:30:23;31.95;;;17.23;;
84411;SDS011;74609;44.028;20.950;2024-01-11T11:32:49;27.60;;;17.15;;
84411;SDS011;74609;44.028;20.950;2024-01-11T11:35:18;24.95;;;16.95;;
84411;SDS011;74609;44.028;20.950;2024-01-11T11:37:44;28.13;;;17.55;;
84411;SDS011;74609;44.028;20.950;2024-01-11T11:40:10;31.77;;;16.90;;
84411;SDS011;74609;44.028;20.950;2024-01-11T11:42:36;24.33;;;16.88;;
84411;SDS011;74609;44.028;20.950;2024-01-11T11:45:03;25.42;;;16.92;;
84411;SDS011;74609;44.028;20.950;2024-01-11T11:47:34;24.23;;;16.63;;
84411;SDS011;74609;44.028;20.950;2024-01-11T11:50:07;27.92;;;18.05;;
84411;SDS011;74609;44.028;20.950;2024-01-11T11:52:35;24.00;;;16.35;;
84411;SDS011;74609;44.028;20.950;2024-01-11T11:55:02;24.48;;;17.10;;
84411;SDS011;74609;44.028;20.950;2024-01-11T11:57:28;23.40;;;16.50;;
84411;SDS011;74609;44.028;20.950;2024-01-11T11:59:57;21.98;;;15.93;;
84411;SDS011;74609;44.028;20.950;2024-01-11T12:02:24;22.98;;;17.15;;
84411;SDS011;74609;44.028;20.950;2024-01-11T12:04:51;25.88;;;17.38;;
84411;SDS011;74609;44.028;20.950;2024-01-11T12:07:17;22.20;;;15.45;;
84411;SDS011;74609;44.028;20.950;2024-01-11T12:09:43;23.45;;;15.55;;
84411;SDS011;74609;44.028;20.950;2024-01-11T12:12:09;25.90;;;17.70;;
84411;SDS011;74609;44.028;20.950;2024-01-11T12:14:35;25.10;;;16.33;;
84411;SDS011;74609;44.028;20.950;2024-01-11T12:17:02;23.63;;;16.17;;
84411;SDS011;74609;44.028;20.950;2024-01-11T12:19:29;22.92;;;15.43;;
84411;SDS011;74609;44.028;20.950;2024-01-11T12:21:56;25.40;;;16.10;;
84411;SDS011;74609;44.028;20.950;2024-01-11T12:24:22;31.73;;;19.77;;
84411;SDS011;74609;44.028;20.950;2024-01-11T12:26:49;23.40;;;16.17;;
84411;SDS011;74609;44.028;20.950;2024-01-11T12:29:18;22.13;;;16.45;;
84411;SDS011;74609;44.028;20.950;2024-01-11T12:31:45;21.48;;;14.65;;
84411;SDS011;74609;44.028;20.950;2024-01-11T12:34:11;28.40;;;19.50;;
84411;SDS011;74609;44.028;20.950;2024-01-11T12:36:38;27.90;;;17.30;;
84411;SDS011;74609;44.028;20.950;2024-01-11T12:39:07;23.65;;;17.08;;
84411;SDS011;74609;44.028;20.950;2024-01-11T12:41:34;24.45;;;15.75;;
84411;SDS011;74609;44.028;20.950;2024-01-11T12:44:01;26.95;;;17.20;;
84411;SDS011;74609;44.028;20.950;2024-01-11T12:46:27;20.35;;;15.82;;
84411;SDS011;74609;44.028;20.950;2024-01-11T12:48:53;19.92;;;16.45;;
84411;SDS011;74609;44.028;20.950;2024-01-11T12:51:20;26.50;;;17.27;;
84411;SDS011;74609;44.028;20.950;2024-01-11T12:53:51;24.40;;;16.02;;
84411;SDS011;74609;44.028;20.950;2024-01-11T12:56:17;22.33;;;14.77;;
84411;SDS011;74609;44.028;20.950;2024-01-11T12:58:43;23.25;;;16.00;;
84411;SDS011;74609;44.028;20.950;2024-01-11T13:01:12;23.50;;;15.00;;
84411;SDS011;74609;44.028;20.950;2024-01-11T13:03:39;20.52;;;15.13;;
84411;SDS011;74609;44.028;20.950;2024-01-11T13:06:06;20.33;;;14.70;;
84411;SDS011;74609;44.028;20.950;2024-01-11T13:08:33;23.45;;;13.88;;
84411;SDS011;74609;44.028;20.950;2024-01-11T13:11:02;23.90;;;15.68;;
84411;SDS011;74609;44.028;20.950;2024-01-11T13:13:34;25.92;;;16.25;;
84411;SDS011;74609;44.028;20.950;2024-01-11T13:16:04;25.05;;;15.50;;
84411;SDS011;74609;44.028;20.950;2024-01-11T13:18:39;27.02;;;16.52;;
84411;SDS011;74609;44.028;20.950;2024-01-11T13:21:05;25.08;;;17.60;;
84411;SDS011;74609;44.028;20.950;2024-01-11T13:23:37;24.15;;;16.90;;
84411;SDS011;74609;44.028;20.950;2024-01-11T13:26:05;30.35;;;16.45;;
84411;SDS011;74609;44.028;20.950;2024-01-11T13:28:31;22.27;;;15.38;;
84411;SDS011;74609;44.028;20.950;2024-01-11T13:30:58;25.73;;;17.30;;
84411;SDS011;74609;44.028;20.950;2024-01-11T13:33:25;24.05;;;16.60;;
84411;SDS011;74609;44.028;20.950;2024-01-11T13:35:51;24.95;;;17.20;;
84411;SDS011;74609;44.028;20.950;2024-01-11T13:38:18;24.77;;;16.60;;
84411;SDS011;74609;44.028;20.950;2024-01-11T13:40:53;30.70;;;16.35;;
84411;SDS011;74609;44.028;20.950;2024-01-11T13:43:19;26.23;;;17.35;;
84411;SDS011;74609;44.028;20.950;2024-01-11T13:45:45;28.45;;;16.33;;
84411;SDS011;74609;44.028;20.950;2024-01-11T13:48:11;28.00;;;16.98;;
84411;SDS011;74609;44.028;20.950;2024-01-11T13:50:38;27.08;;;17.42;;
84411;SDS011;74609;44.028;20.950;2024-01-11T13:53:04;30.40;;;16.65;;
84411;SDS011;74609;44.028;20.950;2024-01-11T13:55:31;31.52;;;16.90;;
84411;SDS011;74609;44.028;20.950;2024-01-11T13:58:03;29.35;;;18.08;;
84411;SDS011;74609;44.028;20.950;2024-01-11T14:00:29;28.45;;;17.08;;
84411;SDS011;74609;44.028;20.950;2024-01-11T14:02:55;29.45;;;16.35;;
84411;SDS011;74609;44.028;20.950;2024-01-11T14:05:22;27.60;;;15.18;;
84411;SDS011;74609;44.028;20.950;2024-01-11T14:07:48;36.92;;;17.92;;